Flight Number: EUR1196 Duration: 3:00
Departure: Paris Charles-de-Gaulle (LFPG) at 03:00 Distance: 1138 Nm
Arrival: Athens Int'l (LGAV) at 06:00 Equipment: A330-200

Weather Information
Paris-Aeroport Charles De Gaulle, France (LFPG) 49-01N 002-32E 109M Jan 23, 2018 - 04:30 AM EST / 2018.01.23 0930 UTC
Wind: from the SSW (200 degrees) at 17 MPH (15 KT):0
Visibility: greater than 7 mile(s):0
Sky conditions: partly cloudy Temperature: 48 F (9 C) Dew Point: 41 F (5 C) Relative Humidity: 75% Pressure (altimeter): 30.24 in. Hg (1024 hPa)
ob: LFPG 230930Z 20015KT 9999 FEW025 SCT260 09/05 Q1024 NOSIG cycle: 9
Sunrise: 07:34 Sunset: 16:28 (UTC)

Athens Eleftherios Venizelos International Airport, Greece (LGAV) 37-56N 023-56E Jan 23, 2018 - 04:50 AM EST / 2018.01.23 0950 UTC
Wind: from the N (350 degrees) at 12 MPH (10 KT):0
Visibility: greater than 7 mile(s):0
Sky conditions: mostly clear Temperature: 48 F (9 C) Dew Point: 33 F (1 C) Relative Humidity: 57% Pressure (altimeter): 30.06 in. Hg (1018 hPa)
ob: LGAV 230950Z 35010KT 9999 FEW025 09/01 Q1018 NOSIG cycle: 10
Sunrise: 05:37 Sunset: 15:34 (UTC)

TAF:2018/01/23 06:12 TAF TAF LGAV 230500Z 2306/2406 02015KT 9999 FEW035 BKN050 PROB30 2306/2324 5000 RA SCT018 BKN040 BECMG 2316/2318 03020G30KT

Previous Pireps for this route
Date Aircraft Flight time Fuel used Landing rate On time
2016-01-18A330-20003.16650000Yes
(pireps marked green are flown by you)

Route map